EDT,Max TemperatureF,Mean TemperatureF,Min TemperatureF,Max Dew PointF,MeanDew PointF,Min DewpointF,Max Humidity, Mean Humidity, Min Humidity, Max Sea Level PressureIn, Mean Sea Level PressureIn, Min Sea Level PressureIn, Max VisibilityMiles, Mean VisibilityMiles, Min VisibilityMiles, Max Wind SpeedMPH, Mean Wind SpeedMPH, Max Gust SpeedMPH,PrecipitationIn, CloudCover, Events, WindDirDegrees
2013-4-1,42,34,26,40,29,15,100,81,42,29.93,29.73,29.56,10,5,0,29,7,44,0.09,6,Fog-Rain-Snow,263
2013-4-2,34,29,24,23,18,15,86,66,54,30.07,29.97,29.89,10,5,0,32,18,45,0.00,7,Snow,284
2013-4-3,35,31,28,21,17,14,69,56,44,30.34,30.20,30.06,10,9,2,26,17,40,0.00,5,Snow,287
2013-4-4,54,40,26,25,20,18,74,53,26,30.35,30.19,29.93,10,10,10,15,7,22,0.00,2,,223
2013-4-5,43,38,33,31,24,15,73,57,36,30.10,29.95,29.88,10,10,10,22,12,30,0.00,5,,282
2013-4-6,44,34,26,17,12,7,66,40,27,30.35,30.25,30.11,10,10,10,9,6,,0.00,2,,45
2013-4-7,68,52,39,40,29,18,71,46,29,30.10,29.91,29.74,10,10,10,22,11,37,0.00,4,Rain,187
2013-4-8,55,45,35,41,35,30,87,66,47,30.14,30.03,29.79,10,10,10,9,4,20,0.05,6,Rain,138
2013-4-9,57,50,42,47,41,37,93,77,57,30.12,29.99,29.77,10,8,2,20,10,31,0.50,7,Rain,288
2013-4-10,48,45,42,45,43,38,93,90,82,30.07,29.96,29.89,10,7,1,14,6,,0.34,8,Rain-Thunderstorm,9
2013-4-11,41,37,33,37,30,22,93,81,57,30.16,30.07,29.97,10,8,2,13,7,20,0.15,8,Rain-Snow,26
2013-4-12,42,38,35,39,34,28,93,86,73,30.02,29.75,29.62,10,7,2,17,9,30,0.66,8,Rain,115
2013-4-13,48,42,39,37,34,28,81,70,50,29.93,29.83,29.78,10,10,10,16,8,20,0.01,8,Rain,229
2013-4-14,46,38,32,32,28,25,87,68,46,30.22,30.07,29.93,10,10,10,18,9,28,0.02,5,Rain,271
2013-4-15,68,49,30,43,34,24,82,54,39,30.22,30.16,30.07,10,10,10,16,6,24,0.00,1,,128
2013-4-16,62,54,43,56,47,34,94,78,57,30.23,30.06,29.97,10,7,2,20,14,30,0.22,7,Rain,244
2013-4-17,54,43,33,34,32,30,92,64,41,30.35,30.31,30.23,10,10,10,12,4,,0.00,0,,347
2013-4-18,73,57,41,54,44,32,74,60,42,30.25,29.99,29.81,10,10,10,24,11,40,0.06,4,Rain,146
2013-4-19,75,58,42,56,47,32,82,69,53,29.78,29.63,29.41,10,8,1,30,14,36,0.32,4,Rain,214
2013-4-20,45,38,32,33,27,20,87,64,47,30.40,30.01,29.75,10,9,1,26,15,39,0.01,8,Rain-Snow,276
2013-4-21,43,34,27,23,19,16,78,53,35,30.68,30.60,30.43,10,10,10,12,5,17,0.00,2,Rain,347
2013-4-22,59,44,30,26,24,21,79,46,25,30.63,30.53,30.40,10,10,10,10,4,23,0.00,0,,119
2013-4-23,63,50,39,39,31,22,70,49,28,30.40,30.23,30.02,10,10,10,9,5,23,0.00,0,,130
2013-4-24,70,55,41,53,42,33,87,71,48,30.00,29.82,29.63,10,10,6,28,12,40,0.07,6,Rain,200
2013-4-25,55,46,37,34,28,20,87,58,31,30.31,30.16,30.00,10,10,10,24,14,38,0.00,5,Rain,289
2013-4-26,52,43,33,39,33,26,89,69,39,30.48,30.42,30.31,10,9,5,13,5,17,0.08,3,Rain,276
2013-4-27,66,47,30,38,33,28,92,61,31,30.46,30.37,30.26,10,10,10,7,1,,0.00,2,,93
2013-4-28,75,59,45,45,37,32,74,45,24,30.26,30.15,30.04,10,10,8,18,6,25,0.01,1,Rain,162
2013-4-29,60,56,51,49,47,44,83,73,64,30.13,30.07,30.05,10,10,4,10,7,18,0.17,8,Rain,133
2013-4-30,70,62,53,52,49,47,82,67,51,30.25,30.18,30.11,10,10,10,13,6,21,0.00,6,,154